Elk Point, Canada
Current Conditions -  °F | °C
As of 11:00 PM on Tuesday 25 Nov 2014 (Local Time) from CYOD Reporting Station
Light Snow Light Snow  
Wind Chill: -21°   Ceiling: 2300
Heat Index: -16°   Visibility: 10mi
Dew Point: -22°   Wind: 5mph
Humidity: 61%   Direction: 110°ESE
Pressure: 30.29"   Gusts: NA
Location:  53.9°N, 110.9°W
Report Text: CYOD 260600Z 11004KT 10SM -SN OVC023 M16/M22 A3029 RMK SC8SLP308
Loading
Personal Weather Stations






























Interactive Weather Map New forecast layout! Learn more

10-Day Weather Forecast

Advertisements
Track Severe Weather on mobile